Time;durP1;ratioP1;P1;durP2;ratioP2;P2;SDS_P1;SDS_P2;PMS_P1;PMS_P2;Temp;Humidity;BMP_temperature;BMP_pressure;BME280_temperature;BME280_humidity;BME280_pressure;Samples;Min_cycle;Max_cycle;Signal;HPM_P1;HPM_P2
2021/01/14 00:00:26;;;;;;;41.38;35.72;;;21.90;60.80;;;;;;4959654;28;20290;-48
2021/01/14 00:02:57;;;;;;;39.72;33.65;;;22.00;60.90;;;;;;4963594;28;20232;-48
2021/01/14 00:05:32;;;;;;;39.08;34.83;;;22.00;60.90;;;;;;4960382;28;20226;-48
2021/01/14 00:08:03;;;;;;;41.50;35.17;;;22.00;60.90;;;;;;4966253;28;20346;-48
2021/01/14 00:10:36;;;;;;;39.65;35.40;;;22.00;60.80;;;;;;4966730;28;20252;-51
2021/01/14 00:13:06;;;;;;;39.38;35.10;;;22.00;60.70;;;;;;4963384;28;20221;-48
2021/01/14 00:15:37;;;;;;;37.95;34.05;;;22.00;60.80;;;;;;4958203;28;20253;-48
2021/01/14 00:18:08;;;;;;;36.42;32.25;;;22.00;60.50;;;;;;4964200;28;20228;-53
2021/01/14 00:20:40;;;;;;;37.08;33.40;;;22.10;61.00;;;;;;4964020;28;20256;-51
2021/01/14 00:23:10;;;;;;;35.28;31.50;;;22.10;61.00;;;;;;4957286;28;20264;-48
2021/01/14 00:25:41;;;;;;;40.20;35.17;;;22.10;60.80;;;;;;4964365;28;20233;-48
2021/01/14 00:28:12;;;;;;;39.22;35.10;;;22.10;60.80;;;;;;4966862;28;20233;-49
2021/01/14 00:30:42;;;;;;;36.67;32.83;;;22.20;60.70;;;;;;4961861;28;20234;-50
2021/01/14 00:33:13;;;;;;;35.35;31.58;;;22.20;60.70;;;;;;4970156;28;20324;-49
2021/01/14 00:35:45;;;;;;;39.35;35.10;;;22.20;60.80;;;;;;4966092;28;20269;-51
2021/01/14 00:38:15;;;;;;;40.67;36.25;;;22.20;60.90;;;;;;4963901;28;20232;-49
2021/01/14 00:40:48;;;;;;;37.60;33.30;;;22.20;60.90;;;;;;4966269;28;20239;-53
2021/01/14 00:43:19;;;;;;;39.65;35.38;;;22.30;61.10;;;;;;4968063;28;20236;-49
2021/01/14 00:45:49;;;;;;;39.47;35.17;;;22.30;61.10;;;;;;4962687;28;20229;-50
2021/01/14 00:48:20;;;;;;;40.38;36.00;;;22.30;61.10;;;;;;4966202;28;20256;-50
2021/01/14 00:50:52;;;;;;;39.05;34.58;;;22.40;61.20;;;;;;4967814;28;20245;-50
2021/01/14 00:53:23;;;;;;;39.10;35.13;;;22.40;61.30;;;;;;4957810;28;20666;-51
2021/01/14 00:55:53;;;;;;;37.47;33.63;;;22.50;61.20;;;;;;4963633;28;20229;-50
2021/01/14 00:58:24;;;;;;;41.33;37.15;;;22.60;61.30;;;;;;4965787;28;20228;-49
2021/01/14 01:00:54;;;;;;;40.72;36.30;;;22.60;61.20;;;;;;4964726;28;20239;-48
2021/01/14 01:03:26;;;;;;;39.10;35.13;;;22.70;61.20;;;;;;4963935;28;20232;-48
2021/01/14 01:05:58;;;;;;;39.88;35.58;;;22.70;61.20;;;;;;4957237;28;20232;-48
2021/01/14 01:08:28;;;;;;;39.38;35.17;;;22.80;61.20;;;;;;4962882;28;20312;-48
2021/01/14 01:11:01;;;;;;;37.80;34.08;;;22.90;61.10;;;;;;4970180;28;20252;-48
2021/01/14 01:13:31;;;;;;;39.30;35.20;;;23.00;61.10;;;;;;4959657;28;20315;-49
2021/01/14 01:16:02;;;;;;;40.03;35.78;;;23.10;61.00;;;;;;4966791;28;20279;-48
2021/01/14 01:18:33;;;;;;;40.90;34.20;;;23.20;60.70;;;;;;4965022;28;20654;-48
2021/01/14 01:21:08;;;;;;;37.70;33.55;;;23.30;60.60;;;;;;4964985;28;20229;-48
2021/01/14 01:23:39;;;;;;;35.40;31.70;;;23.30;60.50;;;;;;4960991;28;20243;-48
2021/01/14 01:26:09;;;;;;;35.13;31.45;;;23.40;60.40;;;;;;4959175;28;20241;-48
2021/01/14 01:28:40;;;;;;;37.70;33.50;;;23.50;60.20;;;;;;4985313;28;20243;-48
2021/01/14 01:31:11;;;;;;;37.80;31.92;;;23.60;60.00;;;;;;4961394;28;20259;-48
2021/01/14 01:33:42;;;;;;;37.67;33.70;;;23.70;59.80;;;;;;4971054;28;20235;-48
2021/01/14 01:36:15;;;;;;;36.03;31.98;;;23.80;59.60;;;;;;4960324;28;20282;-48
2021/01/14 01:38:45;;;;;;;36.25;32.38;;;23.90;59.40;;;;;;4994967;28;20232;-49
2021/01/14 01:41:16;;;;;;;36.75;32.92;;;24.00;59.30;;;;;;4962413;28;20239;-50
2021/01/14 01:43:48;;;;;;;35.33;31.60;;;24.10;59.00;;;;;;4926489;28;20239;-50
2021/01/14 01:46:26;;;;;;;34.03;30.00;;;24.10;58.80;;;;;;4941479;28;20230;-48
2021/01/14 01:48:56;;;;;;;34.78;31.30;;;24.30;58.70;;;;;;4923398;28;20234;-48
2021/01/14 01:51:33;;;;;;;32.65;29.30;;;24.30;58.50;;;;;;4927707;28;20237;-49
2021/01/14 01:54:04;;;;;;;31.05;27.30;;;24.40;58.40;;;;;;4950548;28;20250;-48
2021/01/14 01:56:35;;;;;;;29.42;26.33;;;24.50;58.30;;;;;;4928926;28;20235;-51
2021/01/14 01:59:06;;;;;;;30.10;26.98;;;24.60;57.90;;;;;;4930295;28;20265;-49
2021/01/14 02:01:38;;;;;;;30.23;27.10;;;24.70;57.60;;;;;;4967777;28;20724;-48
2021/01/14 02:04:09;;;;;;;31.67;28.23;;;24.80;57.50;;;;;;4926189;29;20272;-47
2021/01/14 02:06:46;;;;;;;30.77;27.60;;;24.90;57.20;;;;;;4931259;29;20284;-50
2021/01/14 02:09:17;;;;;;;27.88;24.85;;;25.00;56.60;;;;;;4898791;28;20231;-48
2021/01/14 02:11:48;;;;;;;32.88;25.33;;;25.20;56.70;;;;;;4888733;28;20239;-49
2021/01/14 02:14:20;;;;;;;28.90;24.98;;;25.20;56.40;;;;;;4897883;28;20271;-51
2021/01/14 02:16:51;;;;;;;26.70;22.10;;;25.30;55.90;;;;;;4919293;28;20231;-51
2021/01/14 02:19:24;;;;;;;25.45;21.77;;;25.40;55.80;;;;;;4895733;28;20617;-48
2021/01/14 02:21:57;;;;;;;27.13;23.60;;;25.60;55.60;;;;;;4886937;28;20310;-51
2021/01/14 02:24:29;;;;;;;29.45;22.80;;;25.70;55.20;;;;;;4900854;28;20263;-49
2021/01/14 02:27:01;;;;;;;25.15;22.38;;;25.80;55.10;;;;;;4839029;29;20281;-49
2021/01/14 02:29:31;;;;;;;24.60;21.35;;;25.90;54.20;;;;;;4883367;28;20232;-50
2021/01/14 02:32:02;;;;;;;24.63;21.25;;;26.00;54.30;;;;;;4887398;28;20284;-50
2021/01/14 02:34:32;;;;;;;26.00;20.25;;;26.10;54.10;;;;;;4925431;29;20606;-49
2021/01/14 02:37:03;;;;;;;23.10;20.60;;;26.20;53.70;;;;;;4923199;28;20264;-49
2021/01/14 02:39:33;;;;;;;19.20;17.13;;;26.30;53.20;;;;;;4925696;28;20230;-48
2021/01/14 02:42:05;;;;;;;24.85;19.65;;;26.40;53.20;;;;;;4921340;28;20234;-48
2021/01/14 02:44:36;;;;;;;22.00;19.45;;;26.60;53.00;;;;;;4924522;29;20246;-49
2021/01/14 02:47:07;;;;;;;29.48;22.63;;;26.60;52.80;;;;;;4924238;29;20245;-48
2021/01/14 02:49:40;;;;;;;21.63;17.17;;;26.70;52.60;;;;;;4927686;28;20266;-52
2021/01/14 02:52:10;;;;;;;18.08;15.98;;;26.90;51.30;;;;;;4941103;28;20328;-50
2021/01/14 02:54:41;;;;;;;22.63;19.85;;;27.00;51.90;;;;;;4962688;28;20233;-54
2021/01/14 02:57:13;;;;;;;22.77;20.17;;;27.10;52.00;;;;;;4974243;28;22089;-51
2021/01/14 02:59:43;;;;;;;21.33;18.60;;;27.20;51.60;;;;;;5025389;28;20326;-48
2021/01/14 03:02:15;;;;;;;21.40;18.20;;;27.30;51.40;;;;;;5024071;28;20237;-53
2021/01/14 03:04:45;;;;;;;21.52;18.33;;;27.40;51.40;;;;;;5024711;28;20318;-50
2021/01/14 03:07:16;;;;;;;27.23;21.08;;;27.50;51.60;;;;;;5025051;28;20325;-49
2021/01/14 03:09:47;;;;;;;22.98;19.52;;;27.60;50.90;;;;;;5025606;28;20226;-48
2021/01/14 03:12:19;;;;;;;23.50;19.50;;;27.70;51.00;;;;;;5021836;28;20235;-47
2021/01/14 03:14:49;;;;;;;21.35;19.05;;;27.70;50.40;;;;;;5026976;28;20253;-48
2021/01/14 03:17:20;;;;;;;23.80;19.33;;;27.90;50.50;;;;;;5024437;28;20249;-50
2021/01/14 03:19:50;;;;;;;21.17;17.73;;;27.90;50.50;;;;;;4982901;28;20608;-48
2021/01/14 03:22:21;;;;;;;24.73;19.50;;;28.00;50.10;;;;;;4965039;28;20232;-48
2021/01/14 03:24:51;;;;;;;27.38;21.45;;;28.10;50.00;;;;;;4961734;28;20229;-48
2021/01/14 03:27:23;;;;;;;25.25;20.38;;;28.20;49.00;;;;;;4967603;28;20243;-51
2021/01/14 03:29:53;;;;;;;23.65;19.40;;;28.20;48.50;;;;;;4958348;28;20238;-48
2021/01/14 03:32:24;;;;;;;20.17;18.05;;;28.20;48.70;;;;;;4965023;28;20236;-54
2021/01/14 03:34:54;;;;;;;26.85;17.88;;;28.30;48.50;;;;;;4963460;28;20232;-49
2021/01/14 03:37:28;;;;;;;19.02;16.77;;;28.40;48.60;;;;;;4960871;28;20225;-49
2021/01/14 03:40:03;;;;;;;20.23;17.42;;;28.50;48.60;;;;;;4961010;28;20769;-50
2021/01/14 03:42:34;;;;;;;20.92;16.63;;;28.60;47.90;;;;;;4961632;28;20657;-51
2021/01/14 03:45:08;;;;;;;18.80;16.83;;;28.70;47.90;;;;;;4960501;28;20233;-51
2021/01/14 03:47:39;;;;;;;23.38;17.88;;;28.80;47.90;;;;;;4965663;28;20322;-48
2021/01/14 03:50:10;;;;;;;21.08;17.42;;;28.90;47.40;;;;;;4967999;28;20699;-49
2021/01/14 03:52:41;;;;;;;20.27;17.70;;;28.90;47.40;;;;;;4967159;28;20720;-49
2021/01/14 03:55:12;;;;;;;17.90;16.00;;;29.00;47.60;;;;;;4963674;28;20673;-50
2021/01/14 03:57:45;;;;;;;21.40;17.35;;;29.00;47.80;;;;;;4959343;28;20225;-49
2021/01/14 04:00:16;;;;;;;19.40;17.50;;;29.10;47.10;;;;;;4965567;28;20704;-47
2021/01/14 04:02:47;;;;;;;19.48;17.15;;;29.20;46.40;;;;;;4956996;28;20256;-50
2021/01/14 04:05:17;;;;;;;21.92;18.52;;;29.30;46.60;;;;;;4964171;28;20233;-52
2021/01/14 04:07:48;;;;;;;20.73;17.15;;;29.30;45.90;;;;;;4981890;28;20735;-49
2021/01/14 04:10:18;;;;;;;18.88;16.20;;;29.40;46.20;;;;;;4920635;28;20281;-49
2021/01/14 04:12:50;;;;;;;17.70;15.80;;;29.40;45.40;;;;;;4932454;28;20745;-48
2021/01/14 04:15:20;;;;;;;19.35;16.60;;;29.50;45.80;;;;;;4926187;28;20238;-49
2021/01/14 04:17:51;;;;;;;17.55;15.75;;;29.60;45.60;;;;;;4927269;28;20226;-55
2021/01/14 04:20:21;;;;;;;16.25;14.70;;;29.60;45.20;;;;;;4923756;28;20241;-52
2021/01/14 04:22:52;;;;;;;17.10;13.98;;;29.60;45.40;;;;;;4951592;28;20234;-53
2021/01/14 04:25:30;;;;;;;20.90;16.80;;;29.80;45.50;;;;;;4938561;28;20237;-55
2021/01/14 04:28:02;;;;;;;19.13;15.43;;;29.80;45.10;;;;;;4928801;28;20308;-55
2021/01/14 04:30:34;;;;;;;17.13;15.30;;;29.90;44.90;;;;;;4929780;28;20883;-52
2021/01/14 04:33:14;;;;;;;20.88;15.10;;;30.00;44.60;;;;;;4921686;28;20249;-52
2021/01/14 04:35:48;;;;;;;17.60;15.70;;;30.00;43.90;;;;;;4958434;28;20220;-52
2021/01/14 04:38:19;;;;;;;16.20;14.50;;;30.10;43.90;;;;;;4966939;28;20263;-51
2021/01/14 04:40:56;;;;;;;16.08;14.50;;;30.20;44.00;;;;;;4969248;28;20235;-50
2021/01/14 04:43:28;;;;;;;15.43;13.75;;;30.20;43.80;;;;;;4966577;28;20228;-54
2021/01/14 04:46:04;;;;;;;15.63;13.35;;;30.30;43.60;;;;;;4978819;28;20251;-55
2021/01/14 04:48:36;;;;;;;14.07;12.65;;;30.40;43.50;;;;;;4928346;28;20238;-50
2021/01/14 04:51:11;;;;;;;14.90;12.98;;;30.40;43.40;;;;;;4936194;28;20268;-53
2021/01/14 04:53:42;;;;;;;14.82;13.32;;;30.40;43.40;;;;;;4920725;28;20238;-55
2021/01/14 04:56:13;;;;;;;14.18;12.75;;;30.50;43.30;;;;;;4929105;28;20230;-53
2021/01/14 04:58:46;;;;;;;15.65;14.05;;;30.60;43.50;;;;;;4923181;28;20308;-53
2021/01/14 05:01:20;;;;;;;17.88;13.38;;;30.70;42.80;;;;;;4942175;28;20728;-52
2021/01/14 05:03:51;;;;;;;14.68;13.07;;;30.70;42.10;;;;;;4933903;28;20253;-50
2021/01/14 05:06:22;;;;;;;20.35;17.83;;;30.80;42.70;;;;;;4929327;28;20226;-51
2021/01/14 05:08:53;;;;;;;26.98;23.70;;;30.90;42.90;;;;;;4941332;28;20237;-52
2021/01/14 05:11:24;;;;;;;18.98;16.95;;;30.90;43.10;;;;;;4945354;28;20237;-55
2021/01/14 05:13:56;;;;;;;16.73;15.10;;;31.00;43.40;;;;;;4869972;28;20263;-52
2021/01/14 05:16:26;;;;;;;15.85;14.20;;;31.00;43.20;;;;;;4876357;28;20290;-51
2021/01/14 05:18:57;;;;;;;17.42;15.63;;;31.10;43.60;;;;;;4888957;28;20625;-53
2021/01/14 05:21:32;;;;;;;16.88;15.18;;;31.10;43.40;;;;;;4903059;28;20229;-56
2021/01/14 05:24:12;;;;;;;16.98;15.45;;;31.20;43.20;;;;;;4883143;28;20270;-55
2021/01/14 05:26:43;;;;;;;20.08;18.17;;;31.20;43.40;;;;;;4887078;28;20256;-56
2021/01/14 05:29:16;;;;;;;21.75;19.58;;;31.30;43.10;;;;;;4871317;29;20291;-56
2021/01/14 05:31:47;;;;;;;18.45;16.15;;;31.30;43.60;;;;;;4870755;29;20244;-56
2021/01/14 05:34:17;;;;;;;17.13;15.35;;;31.20;43.80;;;;;;4879184;28;20232;-56
2021/01/14 05:37:02;;;;;;;23.23;19.88;;;31.30;43.80;;;;;;4873280;28;20260;-52
2021/01/14 05:39:40;;;;;;;32.22;25.17;;;31.30;43.50;;;;;;4869967;28;20267;-51
2021/01/14 05:42:11;;;;;;;27.90;23.20;;;31.30;43.70;;;;;;4909877;29;20231;-51
2021/01/14 05:44:44;;;;;;;23.38;19.70;;;31.30;43.80;;;;;;4933746;28;20317;-52
2021/01/14 05:47:22;;;;;;;28.25;23.77;;;31.20;43.40;;;;;;4963079;28;20243;-54
2021/01/14 05:50:01;;;;;;;22.15;19.85;;;31.20;43.10;;;;;;4967921;28;20243;-53
2021/01/14 05:52:32;;;;;;;19.83;17.77;;;31.20;43.20;;;;;;4997790;28;20277;-52
2021/01/14 05:55:06;;;;;;;24.02;18.23;;;31.20;44.10;;;;;;5024367;28;20231;-54
2021/01/14 05:57:38;;;;;;;19.70;17.60;;;31.20;43.40;;;;;;5021567;28;20702;-51
2021/01/14 06:00:14;;;;;;;18.42;16.52;;;31.20;44.00;;;;;;5025877;28;20234;-50
2021/01/14 06:02:44;;;;;;;20.92;17.90;;;31.30;44.20;;;;;;5021450;28;20238;-51
2021/01/14 06:05:27;;;;;;;22.23;19.88;;;31.40;43.90;;;;;;5026113;28;20236;-53
2021/01/14 06:07:58;;;;;;;22.25;18.98;;;31.40;44.00;;;;;;5023800;28;20226;-53
2021/01/14 06:10:34;;;;;;;21.00;18.52;;;31.40;44.20;;;;;;5019810;28;20250;-52
2021/01/14 06:13:05;;;;;;;22.83;20.50;;;31.40;43.90;;;;;;4996781;28;20235;-52
2021/01/14 06:15:38;;;;;;;21.45;18.80;;;31.40;43.20;;;;;;4966715;28;20240;-52
2021/01/14 06:18:11;;;;;;;23.27;20.48;;;31.40;43.50;;;;;;4980609;28;20316;-54
2021/01/14 06:20:52;;;;;;;23.33;21.05;;;31.40;43.30;;;;;;4974704;28;20245;-51
2021/01/14 06:23:23;;;;;;;22.85;20.50;;;31.40;43.20;;;;;;4968764;28;20228;-50
2021/01/14 06:25:54;;;;;;;24.48;22.08;;;31.40;43.80;;;;;;4966932;28;20229;-52
2021/01/14 06:28:34;;;;;;;22.60;19.08;;;31.40;44.10;;;;;;4967418;28;20315;-51
2021/01/14 06:31:08;;;;;;;24.33;21.80;;;31.40;43.90;;;;;;4980116;28;20239;-50
2021/01/14 06:33:42;;;;;;;22.42;20.15;;;31.40;43.70;;;;;;4967231;28;20236;-50
2021/01/14 06:36:16;;;;;;;26.10;22.70;;;31.50;43.70;;;;;;4967609;28;20234;-49
2021/01/14 06:38:48;;;;;;;22.77;20.58;;;31.50;43.80;;;;;;5025759;28;20726;-56
2021/01/14 06:41:19;;;;;;;22.88;20.40;;;31.50;43.50;;;;;;5024828;28;20288;-54
2021/01/14 06:43:53;;;;;;;24.00;20.83;;;31.50;43.30;;;;;;5017116;28;20284;-51
2021/01/14 06:46:25;;;;;;;28.67;24.38;;;31.50;43.40;;;;;;5026020;28;20269;-52
2021/01/14 06:49:06;;;;;;;22.15;19.83;;;31.50;43.70;;;;;;5017712;28;20374;-52
2021/01/14 06:51:56;;;;;;;28.80;22.35;;;31.60;44.10;;;;;;5026721;28;20678;-51
2021/01/14 06:54:27;;;;;;;24.00;21.30;;;31.60;44.10;;;;;;5024553;28;20273;-52
2021/01/14 06:56:58;;;;;;;22.50;20.40;;;31.60;43.50;;;;;;5026707;28;20259;-55
2021/01/14 06:59:29;;;;;;;23.25;19.85;;;31.50;43.50;;;;;;5027139;28;20274;-57
2021/01/14 07:02:37;;;;;;;20.60;18.60;;;31.50;43.10;;;;;;5025208;28;20261;-56
2021/01/14 07:05:10;;;;;;;22.33;20.00;;;31.60;43.00;;;;;;4987718;28;20236;-55
2021/01/14 07:07:50;;;;;;;20.17;18.13;;;31.60;43.20;;;;;;4983579;28;21082;-56
2021/01/14 07:10:20;;;;;;;19.48;17.60;;;31.60;43.20;;;;;;4957643;28;20302;-55
2021/01/14 07:12:52;;;;;;;21.15;18.75;;;31.60;42.90;;;;;;4997886;28;20235;-49
2021/01/14 07:15:23;;;;;;;19.95;17.27;;;31.60;42.90;;;;;;4963344;28;20228;-50
2021/01/14 07:17:54;;;;;;;20.17;18.05;;;31.60;43.00;;;;;;4966378;28;20754;-49
2021/01/14 07:20:26;;;;;;;23.98;19.80;;;31.70;43.20;;;;;;4966562;28;20228;-52
2021/01/14 07:22:58;;;;;;;20.35;18.27;;;31.70;43.50;;;;;;4965241;28;20661;-52
2021/01/14 07:25:30;;;;;;;19.45;16.63;;;31.70;43.50;;;;;;4907343;29;20270;-51
2021/01/14 07:28:00;;;;;;;20.42;18.33;;;31.80;43.50;;;;;;4912123;29;20246;-52
2021/01/14 07:30:32;;;;;;;19.05;17.10;;;31.80;42.90;;;;;;4912230;29;20715;-51
2021/01/14 07:33:05;;;;;;;21.60;18.70;;;31.80;43.00;;;;;;4910784;29;20594;-53
2021/01/14 07:35:39;;;;;;;21.08;18.77;;;31.80;42.90;;;;;;4910601;29;20230;-49
2021/01/14 07:38:13;;;;;;;24.20;21.70;;;31.90;43.30;;;;;;4869812;29;20239;-49
2021/01/14 07:41:01;;;;;;;20.30;18.15;;;31.90;43.30;;;;;;4871380;29;20247;-52
2021/01/14 07:43:34;;;;;;;20.60;18.40;;;31.90;43.00;;;;;;4868326;28;20232;-52
2021/01/14 07:46:16;;;;;;;22.85;20.55;;;31.90;43.10;;;;;;4893448;29;20309;-55
2021/01/14 07:48:46;;;;;;;24.25;21.75;;;32.00;43.30;;;;;;4916463;28;20253;-49
2021/01/14 07:51:19;;;;;;;24.25;20.73;;;32.00;43.20;;;;;;4956894;28;20706;-52
2021/01/14 07:54:14;;;;;;;22.15;19.83;;;31.90;43.10;;;;;;4954189;28;20332;-54
2021/01/14 07:56:50;;;;;;;22.05;19.80;;;32.00;43.20;;;;;;4950858;28;20323;-52
2021/01/14 07:59:30;;;;;;;22.20;17.80;;;31.90;43.20;;;;;;4963213;28;20227;-50
2021/01/14 08:02:07;;;;;;;20.05;17.95;;;31.90;43.30;;;;;;4964803;28;20237;-51
2021/01/14 08:04:48;;;;;;;20.92;18.83;;;31.90;43.40;;;;;;4965557;28;20719;-51
2021/01/14 08:07:26;;;;;;;20.30;18.40;;;31.90;43.70;;;;;;4959944;28;20228;-54
2021/01/14 08:09:56;;;;;;;23.05;19.30;;;32.00;43.60;;;;;;4968747;28;20645;-53
2021/01/14 08:12:29;;;;;;;19.75;17.45;;;32.00;43.90;;;;;;4973883;28;20260;-54
2021/01/14 08:15:00;;;;;;;18.60;16.67;;;32.00;42.90;;;;;;4968075;28;20746;-52
2021/01/14 08:17:30;;;;;;;20.33;18.33;;;32.00;43.20;;;;;;4964973;28;20243;-52
2021/01/14 08:20:01;;;;;;;20.40;17.75;;;32.10;43.60;;;;;;4994536;28;20248;-53
2021/01/14 08:22:42;;;;;;;22.10;17.98;;;32.00;43.30;;;;;;4977112;28;20233;-49
2021/01/14 08:25:16;;;;;;;20.13;18.10;;;32.00;43.40;;;;;;4970247;28;20225;-53
2021/01/14 08:27:47;;;;;;;19.55;17.45;;;32.10;43.20;;;;;;4972501;28;20685;-54
2021/01/14 08:30:18;;;;;;;21.35;19.02;;;32.10;43.40;;;;;;4962836;28;20264;-52
2021/01/14 08:32:49;;;;;;;21.42;19.33;;;32.10;43.20;;;;;;4964679;28;20247;-54
2021/01/14 08:35:25;;;;;;;20.80;18.65;;;32.10;43.50;;;;;;4963527;28;20664;-50
2021/01/14 08:37:57;;;;;;;18.55;16.58;;;32.00;43.60;;;;;;4983923;28;20229;-53
2021/01/14 08:40:30;;;;;;;20.90;18.80;;;32.10;43.90;;;;;;4970493;28;20237;-52
2021/01/14 08:43:05;;;;;;;20.38;17.88;;;32.10;44.20;;;;;;4959922;28;20248;-52
2021/01/14 08:45:37;;;;;;;21.05;18.85;;;32.10;44.00;;;;;;4964110;28;20236;-53
2021/01/14 08:48:09;;;;;;;20.48;18.38;;;32.10;44.10;;;;;;4967084;28;20745;-51
2021/01/14 08:50:47;;;;;;;22.73;20.05;;;32.10;44.30;;;;;;4966045;28;20252;-49
2021/01/14 08:53:37;;;;;;;20.30;17.80;;;32.10;44.40;;;;;;4974332;28;20609;-49
2021/01/14 08:56:10;;;;;;;20.40;17.45;;;32.10;44.80;;;;;;4964665;28;20237;-48
2021/01/14 08:58:42;;;;;;;24.00;20.33;;;32.20;45.00;;;;;;4964332;28;20769;-48
2021/01/14 09:01:17;;;;;;;19.67;17.55;;;32.20;44.90;;;;;;4974205;28;20244;-52
2021/01/14 09:03:48;;;;;;;20.85;18.67;;;32.20;44.90;;;;;;4968894;28;20299;-51
2021/01/14 09:06:18;;;;;;;20.50;18.48;;;32.20;44.80;;;;;;4962138;28;20233;-50
2021/01/14 09:08:57;;;;;;;23.08;18.75;;;32.30;44.80;;;;;;4962780;28;20262;-50
2021/01/14 09:11:30;;;;;;;21.42;19.20;;;32.30;44.50;;;;;;4978969;28;20225;-53
2021/01/14 09:14:05;;;;;;;22.58;20.38;;;32.30;44.90;;;;;;4957880;28;20235;-52
2021/01/14 09:16:35;;;;;;;22.35;18.88;;;32.30;45.30;;;;;;4964733;28;20704;-55
2021/01/14 09:19:13;;;;;;;20.27;18.33;;;32.30;45.50;;;;;;4961414;28;20286;-52
2021/01/14 09:21:44;;;;;;;23.05;20.80;;;32.30;45.70;;;;;;5003270;28;20234;-49
2021/01/14 09:24:16;;;;;;;20.17;18.02;;;32.30;45.50;;;;;;4970312;28;20228;-53
2021/01/14 09:26:50;;;;;;;22.02;19.70;;;32.30;45.50;;;;;;4962469;28;20311;-53
2021/01/14 09:29:21;;;;;;;20.75;17.55;;;32.30;45.30;;;;;;4959482;28;20238;-53
2021/01/14 09:31:51;;;;;;;19.92;18.02;;;32.30;45.30;;;;;;4945180;28;20602;-52
2021/01/14 09:34:23;;;;;;;18.67;16.92;;;32.30;45.50;;;;;;4942837;28;20253;-51
2021/01/14 09:36:54;;;;;;;23.73;21.20;;;32.40;45.50;;;;;;4949054;29;20248;-53
2021/01/14 09:39:26;;;;;;;22.48;19.95;;;32.40;45.30;;;;;;4941766;28;20233;-54
2021/01/14 09:41:58;;;;;;;21.40;19.00;;;32.40;45.50;;;;;;4948774;28;20324;-54
2021/01/14 09:44:31;;;;;;;21.80;19.52;;;32.40;45.60;;;;;;4946550;28;20303;-55
2021/01/14 09:47:01;;;;;;;23.10;17.60;;;32.40;45.60;;;;;;4948241;28;20234;-54
2021/01/14 09:49:32;;;;;;;20.50;18.50;;;32.40;45.40;;;;;;4891864;29;20242;-50
2021/01/14 09:52:04;;;;;;;21.17;19.02;;;32.40;45.50;;;;;;4891887;28;20242;-50
2021/01/14 09:54:35;;;;;;;16.80;15.20;;;32.30;45.40;;;;;;4887197;29;20267;-55
2021/01/14 09:57:07;;;;;;;23.05;20.67;;;32.30;45.70;;;;;;4891569;29;22867;-55
2021/01/14 09:59:40;;;;;;;19.88;17.75;;;32.30;45.70;;;;;;4884999;29;20247;-52
2021/01/14 10:02:12;;;;;;;19.77;17.65;;;32.30;45.90;;;;;;4896172;29;20389;-56
2021/01/14 10:04:44;;;;;;;23.70;21.30;;;32.40;46.00;;;;;;4927482;28;20329;-52
2021/01/14 10:07:15;;;;;;;30.70;23.65;;;32.30;46.00;;;;;;4929203;29;20238;-54
2021/01/14 10:09:47;;;;;;;24.55;22.02;;;32.30;45.90;;;;;;4929331;29;20656;-54
2021/01/14 10:12:18;;;;;;;28.50;20.83;;;32.30;45.90;;;;;;4927993;29;20349;-52
2021/01/14 10:14:48;;;;;;;36.40;28.55;;;32.30;45.90;;;;;;4928055;29;20322;-54
2021/01/14 10:17:19;;;;;;;40.42;30.42;;;32.30;46.00;;;;;;4925153;28;20245;-52
2021/01/14 10:19:51;;;;;;;51.55;38.78;;;32.20;46.20;;;;;;4932442;28;20240;-56
2021/01/14 10:22:24;;;;;;;41.78;33.47;;;32.20;46.10;;;;;;4960075;28;20253;-53
2021/01/14 10:25:08;;;;;;;39.97;32.88;;;32.20;46.20;;;;;;4921131;28;20226;-54
2021/01/14 10:27:38;;;;;;;27.05;23.20;;;32.20;46.00;;;;;;4922659;28;20267;-56
2021/01/14 10:30:19;;;;;;;19.65;17.65;;;32.30;46.10;;;;;;4926491;28;20261;-52
2021/01/14 10:32:50;;;;;;;47.95;37.55;;;32.40;46.00;;;;;;4919254;28;20238;-51
2021/01/14 10:35:26;;;;;;;35.50;30.80;;;32.40;45.60;;;;;;4923621;28;20644;-53
2021/01/14 10:38:07;;;;;;;47.70;39.17;;;32.50;45.30;;;;;;4923023;29;20775;-55
2021/01/14 10:40:40;;;;;;;46.13;40.67;;;32.50;45.30;;;;;;4915594;28;20605;-51
2021/01/14 10:43:35;;;;;;;36.55;32.78;;;32.50;45.10;;;;;;4931376;28;20304;-51
2021/01/14 10:46:06;;;;;;;28.63;25.73;;;32.50;45.00;;;;;;4923086;28;20321;-54
2021/01/14 10:48:42;;;;;;;29.42;26.33;;;32.40;44.90;;;;;;4933107;28;20255;-53
2021/01/14 10:51:12;;;;;;;39.65;35.28;;;32.40;44.80;;;;;;4965591;28;20639;-55
2021/01/14 10:53:43;;;;;;;30.17;26.90;;;32.30;44.90;;;;;;4964099;28;20677;-53
2021/01/14 10:56:17;;;;;;;24.17;21.00;;;32.20;45.00;;;;;;4962450;28;20236;-54
2021/01/14 10:58:56;;;;;;;46.25;39.38;;;32.10;45.10;;;;;;4961347;28;20224;-51
2021/01/14 11:01:26;;;;;;;44.20;39.47;;;32.00;45.30;;;;;;4976156;28;20235;-51
2021/01/14 11:04:00;;;;;;;35.60;31.27;;;31.80;45.30;;;;;;4959065;28;20237;-55
2021/01/14 11:06:31;;;;;;;28.63;23.77;;;31.80;46.20;;;;;;4919361;28;20238;-52
2021/01/14 11:09:02;;;;;;;21.05;18.95;;;31.60;45.60;;;;;;4926565;29;20316;-50
2021/01/14 11:11:34;;;;;;;19.75;17.83;;;31.50;45.80;;;;;;4925122;28;20235;-50
2021/01/14 11:14:05;;;;;;;19.08;17.05;;;31.40;46.20;;;;;;4933484;28;20630;-49
2021/01/14 11:16:36;;;;;;;19.48;17.40;;;31.30;46.40;;;;;;4926388;28;20226;-50
2021/01/14 11:19:07;;;;;;;19.63;17.60;;;31.20;46.60;;;;;;4927972;29;20234;-48
2021/01/14 11:21:39;;;;;;;19.98;17.92;;;31.10;46.80;;;;;;4922652;28;20238;-51
2021/01/14 11:24:10;;;;;;;24.33;20.10;;;31.10;47.00;;;;;;4926107;28;20226;-55
2021/01/14 11:26:41;;;;;;;22.27;19.70;;;31.00;47.20;;;;;;4924416;28;20242;-49
2021/01/14 11:29:11;;;;;;;22.35;18.63;;;30.90;47.20;;;;;;4924830;28;20238;-53
2021/01/14 11:31:42;;;;;;;23.92;21.45;;;30.90;47.50;;;;;;4924280;29;20756;-50
2021/01/14 11:34:12;;;;;;;22.98;20.33;;;30.80;47.70;;;;;;4926188;28;20242;-55
2021/01/14 11:36:43;;;;;;;22.10;19.85;;;30.80;47.90;;;;;;4928614;28;20256;-51
2021/01/14 11:39:14;;;;;;;23.08;20.58;;;30.70;48.10;;;;;;4964854;28;20233;-51
2021/01/14 11:41:45;;;;;;;22.50;20.10;;;30.60;48.30;;;;;;4964623;28;20248;-50
2021/01/14 11:44:18;;;;;;;21.23;18.98;;;30.60;48.60;;;;;;4962588;28;20240;-50
2021/01/14 11:46:48;;;;;;;19.70;17.75;;;30.50;48.60;;;;;;4970939;28;20255;-55
2021/01/14 11:49:19;;;;;;;22.00;19.77;;;30.50;48.80;;;;;;4924664;28;20242;-51
2021/01/14 11:51:52;;;;;;;21.48;18.38;;;30.40;48.90;;;;;;4919153;28;20238;-52
2021/01/14 11:54:23;;;;;;;24.58;20.70;;;30.40;50.00;;;;;;4921873;29;20238;-53
2021/01/14 11:56:58;;;;;;;23.88;21.40;;;30.30;49.20;;;;;;4919688;28;20652;-54
2021/01/14 11:59:29;;;;;;;25.20;22.60;;;30.20;49.50;;;;;;4924923;28;20291;-54
2021/01/14 12:02:00;;;;;;;23.67;21.25;;;30.20;49.70;;;;;;4923522;28;20268;-55
2021/01/14 12:04:30;;;;;;;25.25;22.60;;;30.10;49.80;;;;;;4924523;29;20233;-55
2021/01/14 12:07:02;;;;;;;28.50;22.58;;;30.10;50.10;;;;;;4921103;28;20369;-55
2021/01/14 12:09:33;;;;;;;28.00;22.27;;;30.00;50.30;;;;;;4924863;28;20234;-55
2021/01/14 12:12:06;;;;;;;30.92;22.83;;;30.00;50.40;;;;;;4925058;28;20280;-56
2021/01/14 12:14:37;;;;;;;28.42;23.25;;;29.90;50.50;;;;;;4922768;28;20255;-55
2021/01/14 12:17:07;;;;;;;31.38;22.98;;;29.80;50.50;;;;;;4923150;28;20234;-55
2021/01/14 12:19:38;;;;;;;26.67;23.67;;;29.80;51.30;;;;;;4927801;28;20307;-53
2021/01/14 12:22:09;;;;;;;32.05;23.88;;;29.70;50.80;;;;;;4961486;28;20240;-54
2021/01/14 12:24:39;;;;;;;31.52;24.55;;;29.60;50.90;;;;;;4957875;28;20236;-54
2021/01/14 12:27:11;;;;;;;26.67;23.77;;;29.60;51.10;;;;;;4962096;28;20307;-55
2021/01/14 12:29:41;;;;;;;27.92;24.33;;;29.60;51.40;;;;;;4966482;28;20244;-53
2021/01/14 12:32:12;;;;;;;25.65;22.67;;;29.50;51.50;;;;;;4961248;28;20319;-52
2021/01/14 12:34:43;;;;;;;25.92;23.25;;;29.40;51.60;;;;;;4958053;28;20251;-49
2021/01/14 12:37:14;;;;;;;27.25;23.25;;;29.40;51.90;;;;;;4967269;28;20580;-52
2021/01/14 12:39:45;;;;;;;29.05;23.90;;;29.30;52.10;;;;;;4969666;28;20251;-53
2021/01/14 12:42:17;;;;;;;25.63;22.90;;;29.20;52.20;;;;;;4969399;28;20232;-52
2021/01/14 12:44:47;;;;;;;23.90;21.38;;;29.20;52.50;;;;;;4969089;28;20268;-53
2021/01/14 12:47:21;;;;;;;25.95;22.80;;;29.10;52.60;;;;;;4969318;28;20339;-56
2021/01/14 12:49:52;;;;;;;24.70;22.20;;;29.10;52.80;;;;;;4966513;28;20648;-49
2021/01/14 12:52:22;;;;;;;25.02;22.42;;;29.00;53.00;;;;;;4970167;28;20972;-55
2021/01/14 12:54:53;;;;;;;26.73;24.00;;;28.90;53.10;;;;;;4965216;28;20243;-50